createdAt,value
2022-12-06T00:04:55.389Z,7.14
2022-12-06T00:09:59.161Z,7.66
2022-12-06T00:15:02.683Z,7.51
2022-12-06T00:20:07.704Z,7.56
2022-12-06T00:25:11.297Z,7.31
2022-12-06T00:30:14.980Z,7.49
2022-12-06T00:35:18.420Z,7.39
2022-12-06T00:40:21.849Z,7.08
2022-12-06T00:45:25.277Z,6.88
2022-12-06T00:50:28.758Z,7.21
2022-12-06T00:55:32.139Z,7.15
2022-12-06T01:00:35.539Z,7.26
2022-12-06T01:05:43.743Z,6.70
2022-12-06T01:10:54.962Z,7.43
2022-12-06T01:16:08.743Z,7.14
2022-12-06T01:21:15.489Z,7.22
2022-12-06T01:26:22.354Z,7.34
2022-12-06T01:31:30.709Z,6.71
2022-12-06T01:36:37.351Z,7.42
2022-12-06T01:41:41.413Z,7.40
2022-12-06T01:46:46.274Z,7.10
2022-12-06T01:51:57.784Z,7.23
2022-12-06T01:57:03.393Z,6.60
2022-12-06T02:02:14.850Z,6.93
2022-12-06T02:07:18.551Z,6.64
2022-12-06T02:12:22.687Z,7.10
2022-12-06T02:17:36.544Z,7.17
2022-12-06T02:22:58.735Z,7.26
2022-12-06T02:28:24.686Z,6.83
2022-12-06T02:33:35.461Z,7.44
2022-12-06T02:38:46.906Z,7.42
2022-12-06T02:43:59.512Z,7.16
2022-12-06T02:49:04.698Z,6.49
2022-12-06T02:54:11.107Z,6.97
2022-12-06T02:59:14.687Z,6.64
2022-12-06T03:04:50.566Z,6.45
2022-12-06T03:10:12.200Z,6.41
2022-12-06T03:15:36.357Z,5.88
2022-12-06T03:20:52.892Z,5.79
2022-12-06T03:25:59.503Z,6.06
2022-12-06T03:31:06.844Z,6.21
2022-12-06T03:36:13.693Z,5.84
2022-12-06T03:41:20.131Z,6.10
2022-12-06T03:46:34.964Z,6.47
2022-12-06T03:51:41.357Z,6.23
2022-12-06T03:56:54.799Z,6.35
2022-12-06T04:01:58.448Z,6.45
2022-12-06T04:07:01.896Z,6.42
2022-12-06T04:12:25.594Z,6.19
2022-12-06T04:17:47.421Z,6.06
2022-12-06T04:23:06.143Z,6.41
2022-12-06T04:28:28.219Z,6.18
2022-12-06T04:33:50.294Z,6.35
2022-12-06T04:39:04.250Z,5.68
2022-12-06T04:44:08.734Z,5.51
2022-12-06T04:49:12.304Z,5.59
2022-12-06T04:54:15.724Z,5.63
2022-12-06T04:59:19.550Z,5.06
2022-12-06T05:04:29.222Z,5.70
2022-12-06T05:09:34.008Z,5.51
2022-12-06T05:14:37.632Z,5.37
2022-12-06T05:19:41.024Z,5.32
2022-12-06T05:24:44.473Z,5.32
2022-12-06T05:29:47.991Z,5.39
2022-12-06T05:34:51.782Z,5.12
2022-12-06T05:39:55.211Z,4.48
2022-12-06T05:44:58.628Z,4.89
2022-12-06T05:50:02.553Z,4.59
2022-12-06T05:55:06.326Z,4.74
2022-12-06T06:00:10.748Z,4.64
2022-12-06T06:05:15.410Z,4.61
2022-12-06T06:10:19.099Z,4.71
2022-12-06T06:15:22.467Z,4.75
2022-12-06T06:20:25.892Z,4.48
2022-12-06T06:25:29.702Z,3.96
2022-12-06T06:30:33.705Z,4.31
2022-12-06T06:35:37.777Z,4.08
2022-12-06T06:40:41.228Z,3.70
2022-12-06T06:45:55.613Z,3.97
2022-12-06T06:51:08.127Z,4.07
2022-12-06T06:56:11.996Z,3.42
2022-12-06T07:01:19.363Z,3.50
2022-12-06T07:06:23.268Z,3.29
2022-12-06T07:11:26.759Z,3.54
2022-12-06T07:16:30.554Z,3.76
2022-12-06T07:21:33.985Z,3.22
2022-12-06T07:26:38.019Z,3.79
2022-12-06T07:31:41.835Z,3.60
2022-12-06T07:36:49.833Z,3.83
2022-12-06T07:42:12.416Z,3.52
2022-12-06T07:47:16.517Z,4.04
2022-12-06T07:52:21.340Z,4.53
2022-12-06T07:57:24.853Z,5.60
2022-12-06T08:02:29.529Z,5.18
2022-12-06T08:07:33.196Z,6.11
2022-12-06T08:12:37.636Z,6.38
2022-12-06T08:17:41.732Z,6.30
2022-12-06T08:22:46.604Z,6.13
2022-12-06T08:27:50.039Z,6.18
2022-12-06T08:33:01.250Z,6.44
2022-12-06T08:38:04.711Z,6.41
2022-12-06T08:43:17.980Z,6.32
2022-12-06T08:48:22.191Z,6.30
2022-12-06T08:53:25.624Z,6.50
2022-12-06T08:58:29.313Z,6.54
2022-12-06T09:03:32.675Z,6.29
2022-12-06T09:08:37.384Z,5.60
2022-12-06T09:13:41.788Z,6.59
2022-12-06T09:18:46.087Z,6.79
2022-12-06T09:23:50.743Z,6.45
2022-12-06T09:28:55.800Z,7.06
2022-12-06T09:33:59.143Z,7.15
2022-12-06T09:39:25.607Z,7.36
2022-12-06T09:44:36.246Z,6.88
2022-12-06T09:49:51.615Z,7.61
2022-12-06T09:55:13.366Z,7.70
2022-12-06T10:00:22.983Z,7.86
2022-12-06T10:05:58.892Z,7.97
2022-12-06T10:11:29.332Z,8.06
2022-12-06T10:16:57.231Z,8.19
2022-12-06T10:22:19.115Z,8.36
2022-12-06T10:28:00.485Z,8.49
2022-12-06T10:33:15.028Z,8.41
2022-12-06T10:38:21.235Z,8.81
2022-12-06T10:43:26.657Z,8.59
2022-12-06T10:48:42.389Z,9.25
2022-12-06T10:53:54.005Z,9.13
2022-12-06T10:59:04.070Z,8.56
2022-12-06T11:04:37.882Z,9.68
2022-12-06T11:09:44.939Z,9.92
2022-12-06T11:14:53.505Z,10.02
2022-12-06T11:20:16.569Z,10.11
2022-12-06T11:25:53.890Z,10.13
2022-12-06T11:30:58.381Z,9.07
2022-12-06T11:36:12.027Z,9.69
2022-12-06T11:41:23.180Z,9.76
2022-12-06T11:46:27.795Z,9.93
2022-12-06T11:51:32.062Z,9.90
2022-12-06T11:56:38.392Z,10.30
2022-12-06T12:01:55.071Z,10.29
2022-12-06T12:07:10.247Z,9.70
2022-12-06T12:13:15.612Z,9.99
2022-12-06T12:18:26.267Z,10.05
2022-12-06T12:23:37.977Z,9.96
2022-12-06T12:28:43.631Z,9.59
2022-12-06T12:33:47.340Z,9.79
2022-12-06T12:38:56.642Z,9.75
2022-12-06T12:49:31.762Z,9.99
2022-12-06T12:54:39.959Z,9.96
2022-12-06T12:59:46.249Z,10.09
2022-12-06T13:05:32.522Z,9.93
2022-12-06T13:10:39.992Z,9.81
2022-12-06T13:15:48.095Z,9.72
2022-12-06T13:20:54.321Z,9.58
2022-12-06T13:26:03.583Z,9.32
2022-12-06T13:31:14.881Z,9.09
2022-12-06T13:36:20.214Z,7.44
2022-12-06T13:41:54.776Z,8.78
2022-12-06T13:47:27.183Z,8.17
2022-12-06T13:52:42.769Z,8.69
2022-12-06T13:57:47.688Z,8.45
2022-12-06T14:02:51.216Z,8.58
2022-12-06T14:07:58.868Z,8.41
2022-12-06T14:13:02.447Z,8.17
2022-12-06T14:18:24.705Z,8.41
2022-12-06T14:23:41.706Z,8.01
2022-12-06T14:28:47.794Z,8.00
2022-12-06T14:33:52.062Z,7.21
2022-12-06T14:39:04.631Z,7.01
2022-12-06T14:44:17.216Z,7.88
2022-12-06T14:49:40.920Z,7.44
2022-12-06T14:54:45.794Z,7.56
2022-12-06T15:05:42.616Z,7.34
2022-12-06T15:11:07.183Z,7.23
2022-12-06T15:16:11.138Z,7.13
2022-12-06T15:21:17.215Z,6.79
2022-12-06T15:26:22.269Z,6.98
2022-12-06T15:31:30.713Z,6.91
2022-12-06T15:36:35.839Z,6.74
2022-12-06T15:41:39.980Z,6.11
2022-12-06T15:46:43.903Z,6.17
2022-12-06T15:51:48.096Z,5.19
2022-12-06T15:56:52.585Z,6.50
2022-12-06T16:01:56.288Z,5.56
2022-12-06T16:06:59.727Z,6.01
2022-12-06T16:12:03.418Z,5.85
2022-12-06T16:17:06.790Z,5.16
2022-12-06T16:22:10.323Z,6.15
2022-12-06T16:27:13.731Z,5.79
2022-12-06T16:32:17.412Z,5.14
2022-12-06T16:37:20.963Z,6.37
2022-12-06T16:42:27.319Z,6.38
2022-12-06T16:52:32.698Z,6.22
2022-12-06T16:57:36.169Z,5.28
2022-12-06T17:02:41.382Z,6.28
2022-12-06T17:07:45.177Z,6.28
2022-12-06T17:12:49.640Z,6.18
2022-12-06T17:17:53.316Z,6.16
2022-12-06T17:22:57.993Z,5.89
2022-12-06T17:28:01.647Z,6.11
2022-12-06T17:33:05.008Z,5.70
2022-12-06T17:38:08.692Z,5.86
2022-12-06T17:43:12.279Z,5.73
2022-12-06T17:48:15.678Z,6.10
2022-12-06T17:53:19.421Z,5.37
2022-12-06T17:58:22.912Z,4.36
2022-12-06T18:03:26.997Z,5.36
2022-12-06T18:08:30.564Z,4.61
2022-12-06T18:13:34.776Z,5.97
2022-12-06T18:18:39.508Z,4.58
2022-12-06T18:24:05.414Z,6.00
2022-12-06T18:29:08.558Z,4.93
2022-12-06T18:34:12.979Z,6.04
2022-12-06T18:39:25.175Z,5.99
2022-12-06T18:44:28.766Z,5.53
2022-12-06T18:49:32.217Z,5.96
2022-12-06T18:54:51.662Z,5.70
2022-12-06T18:59:55.178Z,4.22
2022-12-06T19:04:58.795Z,5.00
2022-12-06T19:10:03.279Z,4.87
2022-12-06T19:15:07.686Z,5.61
2022-12-06T19:20:11.381Z,5.73
2022-12-06T19:25:24.763Z,5.12
2022-12-06T19:30:28.300Z,4.90
2022-12-06T19:35:31.752Z,4.49
2022-12-06T19:40:35.268Z,5.34
2022-12-06T19:45:38.942Z,5.47
2022-12-06T19:50:42.471Z,4.48
2022-12-06T19:55:47.053Z,5.26
2022-12-06T20:00:52.196Z,5.62
2022-12-06T20:06:03.368Z,5.68
2022-12-06T20:11:29.459Z,5.34
2022-12-06T20:16:33.999Z,4.56
2022-12-06T20:21:37.823Z,5.42
2022-12-06T20:26:42.422Z,3.84
2022-12-06T20:31:46.664Z,4.30
2022-12-06T20:36:51.836Z,5.12
2022-12-06T20:41:55.666Z,4.59
2022-12-06T20:47:05.686Z,4.83
2022-12-06T20:52:09.210Z,4.80
2022-12-06T20:57:12.702Z,4.63
2022-12-06T21:02:16.408Z,5.27
2022-12-06T21:07:20.302Z,5.35
2022-12-06T21:12:24.551Z,4.84
2022-12-06T21:17:37.351Z,5.59
2022-12-06T21:22:40.759Z,4.27
2022-12-06T21:27:44.895Z,5.25
2022-12-06T21:32:48.327Z,5.31
2022-12-06T21:37:51.924Z,4.48
2022-12-06T21:42:55.564Z,4.60
2022-12-06T21:47:59.136Z,3.97
2022-12-06T21:53:03.765Z,5.07
2022-12-06T21:58:07.339Z,5.04
2022-12-06T22:03:10.786Z,5.06
2022-12-06T22:08:14.604Z,4.58
2022-12-06T22:13:18.182Z,4.06
2022-12-06T22:18:21.613Z,4.75
2022-12-06T22:23:25.432Z,5.38
2022-12-06T22:28:29.067Z,5.05
2022-12-06T22:33:33.291Z,5.12
2022-12-06T22:38:37.115Z,3.82
2022-12-06T22:43:40.544Z,4.43
2022-12-06T22:48:45.336Z,4.88
2022-12-06T22:53:53.735Z,3.98
2022-12-06T22:58:59.795Z,3.79
2022-12-06T23:04:05.999Z,3.55
2022-12-06T23:09:15.370Z,3.89
2022-12-06T23:14:19.479Z,3.79
2022-12-06T23:19:23.137Z,3.71
2022-12-06T23:24:26.739Z,3.37
2022-12-06T23:29:30.326Z,4.14
2022-12-06T23:34:34.458Z,3.74
2022-12-06T23:39:37.875Z,3.43
2022-12-06T23:44:41.446Z,4.20
2022-12-06T23:49:45.094Z,4.76
2022-12-06T23:54:48.464Z,4.79
2022-12-06T23:59:51.858Z,4.88
